Keret — UAEH — position and weather

sailwx.info

Track history (hours):
 
Tides and Currents Weather Stations Pressure Air Temp Water Temp Dewpoint Dewpoint Depression Visibility Wind Speed Wind Dir Waves Ship Positions

Keret

Last reported at 2014-Sep-18 22:05 UTC. Time now 2014-Sep-20 06:00 UTC.
Position N 59°57' E 030°24'.

Length 82 m; draft 2.8 m.

Type: Cargo ship. MMSI: 273333000.

Date/timePositionNaut miles runAvg speedWind from/ knotsBaromVisibWave heightAir tempDewpointWater temp
2014-Sep-18 22:05N 59°57' E 030°24'3 6.3
2014-Sep-18 21:33N 59°56' E 030°17'0 0.3
2014-Sep-18 20:33N 59°56' E 030°17'0 0.0
2014-Sep-18 19:33N 59°56' E 030°17'0 0.0
2014-Sep-18 18:33N 59°56' E 030°17'0 0.0
2014-Sep-18 17:33N 59°56' E 030°17'1 1.2
2014-Sep-18 16:33N 59°55' E 030°16'  
2014-Sep-16 07:33N 59°54' E 030°13'3 2.7
2014-Sep-16 06:33N 59°56' E 030°17'0 0.0
2014-Sep-16 05:33N 59°56' E 030°17'0 0.0
2014-Sep-16 04:33N 59°56' E 030°17'0 0.0
2014-Sep-16 03:33N 59°56' E 030°17'0 0.0
2014-Sep-16 02:34N 59°56' E 030°17'0 0.0
2014-Sep-16 01:33N 59°56' E 030°17'0 0.0
2014-Sep-16 00:33N 59°56' E 030°17'  
2014-Sep-09 22:18N 59°57' E 030°24'4 4.8
2014-Sep-09 21:33N 59°56' E 030°17'0 0.0
2014-Sep-09 16:22N 59°56' E 030°17'0 0.0
2014-Sep-09 13:18N 59°56' E 030°17'0 0.0
2014-Sep-09 08:33N 59°56' E 030°17'0 0.0
2014-Sep-09 07:33N 59°56' E 030°17'1 1.1
2014-Sep-09 06:33N 59°55' E 030°16'5 4.5
2014-Sep-09 05:32N 59°56' E 030°07'  
Track history (hours):
 
Tides and Currents Weather Stations Pressure Air Temp Water Temp Dewpoint Dewpoint Depression Visibility Wind Speed Wind Dir Waves Ship Positions

Keret

Last reported at 2014-Sep-18 22:05 UTC. Time now 2014-Sep-20 06:00 UTC.
Position N 59°57' E 030°24'.

Length 82 m; draft 2.8 m.

Type: Cargo ship. MMSI: 273333000.

Date/timePositionNaut miles runAvg speedWind from/ knotsBaromVisibWave heightAir tempDewpointWater temp
2014-Sep-18 22:05N 59°57' E 030°24'3 6.3
2014-Sep-18 21:33N 59°56' E 030°17'0 0.3
2014-Sep-18 20:33N 59°56' E 030°17'0 0.0
2014-Sep-18 19:33N 59°56' E 030°17'0 0.0
2014-Sep-18 18:33N 59°56' E 030°17'0 0.0
2014-Sep-18 17:33N 59°56' E 030°17'1 1.2
2014-Sep-18 16:33N 59°55' E 030°16'  
2014-Sep-16 07:33N 59°54' E 030°13'3 2.7
2014-Sep-16 06:33N 59°56' E 030°17'0 0.0
2014-Sep-16 05:33N 59°56' E 030°17'0 0.0
2014-Sep-16 04:33N 59°56' E 030°17'0 0.0
2014-Sep-16 03:33N 59°56' E 030°17'0 0.0
2014-Sep-16 02:34N 59°56' E 030°17'0 0.0
2014-Sep-16 01:33N 59°56' E 030°17'0 0.0
2014-Sep-16 00:33N 59°56' E 030°17'  
2014-Sep-09 22:18N 59°57' E 030°24'4 4.8
2014-Sep-09 21:33N 59°56' E 030°17'0 0.0
2014-Sep-09 16:22N 59°56' E 030°17'0 0.0
2014-Sep-09 13:18N 59°56' E 030°17'0 0.0
2014-Sep-09 08:33N 59°56' E 030°17'0 0.0
2014-Sep-09 07:33N 59°56' E 030°17'1 1.1
2014-Sep-09 06:33N 59°55' E 030°16'5 4.5
2014-Sep-09 05:32N 59°56' E 030°07'  

Dump ship's entire track history